Oakalla, Texas
Current Conditions -  °F | °C
As of 7:08 PM on Sunday 21 Dec 2014 (Local Time) from KBMQ Reporting Station
Broken Clouds Broken Clouds  
Wind Chill: 51°   Ceiling: 1500
Heat Index: 51°   Visibility: 10mi
Dew Point: 47°   Wind: 8mph
Humidity: 86%   Direction: 200°SSW
Pressure: 29.86"   Gusts: NA
Location:  30.9326°N, 97.9996°W
Report Text: KBMQ 220108Z AUTO 20007KT 10SM BKN015 11/08 A2986 RMK AO2 T01060083
Loading
Personal Weather Stations






























Interactive Weather Map New forecast layout! Learn more

10-Day Weather Forecast

Advertisements
Track Severe Weather on mobile